sensor_id;sensor_type;location;lat;lon;timestamp;temperature;humidity
50548;DHT22;38013;48.810;8.818;2022-07-30T00:00:05;21.10;56.60
50548;DHT22;38013;48.810;8.818;2022-07-30T00:02:32;21.10;56.80
50548;DHT22;38013;48.810;8.818;2022-07-30T00:04:58;21.20;57.70
50548;DHT22;38013;48.810;8.818;2022-07-30T00:07:24;21.20;56.30
50548;DHT22;38013;48.810;8.818;2022-07-30T00:09:50;21.20;56.50
50548;DHT22;38013;48.810;8.818;2022-07-30T00:12:16;21.20;56.70
50548;DHT22;38013;48.810;8.818;2022-07-30T00:14:42;21.20;56.80
50548;DHT22;38013;48.810;8.818;2022-07-30T00:17:07;21.20;56.90
50548;DHT22;38013;48.810;8.818;2022-07-30T00:19:34;21.20;56.80
50548;DHT22;38013;48.810;8.818;2022-07-30T00:21:59;21.20;56.90
50548;DHT22;38013;48.810;8.818;2022-07-30T00:24:25;21.20;57.00
50548;DHT22;38013;48.810;8.818;2022-07-30T00:26:51;21.20;57.10
50548;DHT22;38013;48.810;8.818;2022-07-30T00:29:17;21.20;57.20
50548;DHT22;38013;48.810;8.818;2022-07-30T00:31:42;21.20;58.00
50548;DHT22;38013;48.810;8.818;2022-07-30T00:34:08;21.20;57.30
50548;DHT22;38013;48.810;8.818;2022-07-30T00:36:34;21.20;57.40
50548;DHT22;38013;48.810;8.818;2022-07-30T00:39:00;21.20;57.50
50548;DHT22;38013;48.810;8.818;2022-07-30T00:41:27;21.10;57.50
50548;DHT22;38013;48.810;8.818;2022-07-30T00:43:53;21.10;57.50
50548;DHT22;38013;48.810;8.818;2022-07-30T00:46:19;21.10;57.50
50548;DHT22;38013;48.810;8.818;2022-07-30T00:48:45;21.10;57.70
50548;DHT22;38013;48.810;8.818;2022-07-30T00:51:11;21.10;57.60
50548;DHT22;38013;48.810;8.818;2022-07-30T00:53:37;21.10;57.70
50548;DHT22;38013;48.810;8.818;2022-07-30T00:56:03;21.10;57.80
50548;DHT22;38013;48.810;8.818;2022-07-30T00:58:30;21.00;57.70
50548;DHT22;38013;48.810;8.818;2022-07-30T01:00:55;21.00;57.80
50548;DHT22;38013;48.810;8.818;2022-07-30T01:03:22;21.00;57.80
50548;DHT22;38013;48.810;8.818;2022-07-30T01:05:48;21.00;58.00
50548;DHT22;38013;48.810;8.818;2022-07-30T01:08:14;20.90;58.10
50548;DHT22;38013;48.810;8.818;2022-07-30T01:10:40;20.90;58.20
50548;DHT22;38013;48.810;8.818;2022-07-30T01:13:06;20.80;58.30
50548;DHT22;38013;48.810;8.818;2022-07-30T01:15:33;20.80;58.40
50548;DHT22;38013;48.810;8.818;2022-07-30T01:18:01;20.80;58.60
50548;DHT22;38013;48.810;8.818;2022-07-30T01:20:33;20.80;58.70
50548;DHT22;38013;48.810;8.818;2022-07-30T01:23:14;20.80;58.90
50548;DHT22;38013;48.810;8.818;2022-07-30T01:25:55;20.70;59.20
50548;DHT22;38013;48.810;8.818;2022-07-30T01:28:27;20.70;59.20
50548;DHT22;38013;48.810;8.818;2022-07-30T01:30:56;20.70;58.90
50548;DHT22;38013;48.810;8.818;2022-07-30T01:33:24;20.70;58.70
50548;DHT22;38013;48.810;8.818;2022-07-30T01:35:52;20.70;58.80
50548;DHT22;38013;48.810;8.818;2022-07-30T01:38:20;20.60;58.80
50548;DHT22;38013;48.810;8.818;2022-07-30T01:40:49;20.60;58.90
50548;DHT22;38013;48.810;8.818;2022-07-30T01:43:17;20.60;58.90
50548;DHT22;38013;48.810;8.818;2022-07-30T01:45:44;20.60;58.90
50548;DHT22;38013;48.810;8.818;2022-07-30T01:48:14;20.60;59.00
50548;DHT22;38013;48.810;8.818;2022-07-30T01:50:43;20.60;59.00
50548;DHT22;38013;48.810;8.818;2022-07-30T01:53:21;20.60;59.70
50548;DHT22;38013;48.810;8.818;2022-07-30T01:55:49;20.50;59.50
50548;DHT22;38013;48.810;8.818;2022-07-30T01:58:18;20.50;58.90
50548;DHT22;38013;48.810;8.818;2022-07-30T02:00:50;20.50;59.00
50548;DHT22;38013;48.810;8.818;2022-07-30T02:03:16;20.50;58.90
50548;DHT22;38013;48.810;8.818;2022-07-30T02:05:46;20.50;58.90
50548;DHT22;38013;48.810;8.818;2022-07-30T02:08:21;20.50;59.00
50548;DHT22;38013;48.810;8.818;2022-07-30T02:11:00;20.50;59.00
50548;DHT22;38013;48.810;8.818;2022-07-30T02:13:31;20.40;59.10
50548;DHT22;38013;48.810;8.818;2022-07-30T02:16:05;20.40;58.90
50548;DHT22;38013;48.810;8.818;2022-07-30T02:18:43;20.30;59.30
50548;DHT22;38013;48.810;8.818;2022-07-30T02:21:15;20.30;59.30
50548;DHT22;38013;48.810;8.818;2022-07-30T02:23:44;20.30;59.20
50548;DHT22;38013;48.810;8.818;2022-07-30T02:26:17;20.30;59.20
50548;DHT22;38013;48.810;8.818;2022-07-30T02:28:51;20.20;59.60
50548;DHT22;38013;48.810;8.818;2022-07-30T02:31:23;20.20;59.50
50548;DHT22;38013;48.810;8.818;2022-07-30T02:33:56;20.10;59.20
50548;DHT22;38013;48.810;8.818;2022-07-30T02:36:26;20.10;59.20
50548;DHT22;38013;48.810;8.818;2022-07-30T02:38:52;20.00;59.20
50548;DHT22;38013;48.810;8.818;2022-07-30T02:41:20;20.00;59.10
50548;DHT22;38013;48.810;8.818;2022-07-30T02:43:48;20.00;59.20
50548;DHT22;38013;48.810;8.818;2022-07-30T02:46:17;19.90;59.10
50548;DHT22;38013;48.810;8.818;2022-07-30T02:49:05;19.90;59.20
50548;DHT22;38013;48.810;8.818;2022-07-30T02:51:33;19.80;59.40
50548;DHT22;38013;48.810;8.818;2022-07-30T02:54:00;19.70;59.50
50548;DHT22;38013;48.810;8.818;2022-07-30T02:56:29;19.70;59.80
50548;DHT22;38013;48.810;8.818;2022-07-30T02:58:56;19.60;59.90
50548;DHT22;38013;48.810;8.818;2022-07-30T03:01:24;19.60;60.00
50548;DHT22;38013;48.810;8.818;2022-07-30T03:03:51;19.50;60.00
50548;DHT22;38013;48.810;8.818;2022-07-30T03:06:19;19.50;60.10
50548;DHT22;38013;48.810;8.818;2022-07-30T03:08:46;19.50;60.10
50548;DHT22;38013;48.810;8.818;2022-07-30T03:11:12;19.50;60.20
50548;DHT22;38013;48.810;8.818;2022-07-30T03:13:41;19.40;60.10
50548;DHT22;38013;48.810;8.818;2022-07-30T03:16:09;19.50;59.80
50548;DHT22;38013;48.810;8.818;2022-07-30T03:18:36;19.40;60.20
50548;DHT22;38013;48.810;8.818;2022-07-30T03:21:07;19.40;59.70
50548;DHT22;38013;48.810;8.818;2022-07-30T03:23:34;19.30;59.90
50548;DHT22;38013;48.810;8.818;2022-07-30T03:26:04;19.30;59.70
50548;DHT22;38013;48.810;8.818;2022-07-30T03:28:33;19.30;59.80
50548;DHT22;38013;48.810;8.818;2022-07-30T03:31:01;19.20;60.00
50548;DHT22;38013;48.810;8.818;2022-07-30T03:33:28;19.20;60.00
50548;DHT22;38013;48.810;8.818;2022-07-30T03:35:56;19.20;59.90
50548;DHT22;38013;48.810;8.818;2022-07-30T03:38:23;19.10;60.10
50548;DHT22;38013;48.810;8.818;2022-07-30T03:40:50;19.00;60.20
50548;DHT22;38013;48.810;8.818;2022-07-30T03:43:16;19.00;60.40
50548;DHT22;38013;48.810;8.818;2022-07-30T03:45:44;19.00;60.70
50548;DHT22;38013;48.810;8.818;2022-07-30T03:48:13;18.90;60.90
50548;DHT22;38013;48.810;8.818;2022-07-30T03:50:45;18.90;60.90
50548;DHT22;38013;48.810;8.818;2022-07-30T03:53:12;18.90;60.90
50548;DHT22;38013;48.810;8.818;2022-07-30T03:55:59;18.80;60.90
50548;DHT22;38013;48.810;8.818;2022-07-30T03:58:43;18.80;60.90
50548;DHT22;38013;48.810;8.818;2022-07-30T04:01:10;18.80;61.00
50548;DHT22;38013;48.810;8.818;2022-07-30T04:03:36;18.70;60.90
50548;DHT22;38013;48.810;8.818;2022-07-30T04:06:04;18.70;60.80
50548;DHT22;38013;48.810;8.818;2022-07-30T04:08:30;18.70;60.70
50548;DHT22;38013;48.810;8.818;2022-07-30T04:10:56;18.60;60.90
50548;DHT22;38013;48.810;8.818;2022-07-30T04:13:43;18.50;61.10
50548;DHT22;38013;48.810;8.818;2022-07-30T04:16:17;18.50;61.20
50548;DHT22;38013;48.810;8.818;2022-07-30T04:18:49;18.40;61.90
50548;DHT22;38013;48.810;8.818;2022-07-30T04:21:17;18.40;61.90
50548;DHT22;38013;48.810;8.818;2022-07-30T04:23:46;18.40;62.00
50548;DHT22;38013;48.810;8.818;2022-07-30T04:26:14;18.30;61.90
50548;DHT22;38013;48.810;8.818;2022-07-30T04:28:41;18.30;61.90
50548;DHT22;38013;48.810;8.818;2022-07-30T04:31:07;18.30;62.10
50548;DHT22;38013;48.810;8.818;2022-07-30T04:33:33;18.30;62.20
50548;DHT22;38013;48.810;8.818;2022-07-30T04:36:18;18.30;62.20
50548;DHT22;38013;48.810;8.818;2022-07-30T04:38:45;18.30;62.20
50548;DHT22;38013;48.810;8.818;2022-07-30T04:41:11;18.40;62.30
50548;DHT22;38013;48.810;8.818;2022-07-30T04:43:55;18.40;62.30
50548;DHT22;38013;48.810;8.818;2022-07-30T04:46:22;18.40;62.20
50548;DHT22;38013;48.810;8.818;2022-07-30T04:48:49;18.40;62.20
50548;DHT22;38013;48.810;8.818;2022-07-30T04:51:21;18.50;62.20
50548;DHT22;38013;48.810;8.818;2022-07-30T04:53:51;18.50;62.30
50548;DHT22;38013;48.810;8.818;2022-07-30T04:56:19;18.60;62.20
50548;DHT22;38013;48.810;8.818;2022-07-30T04:58:46;18.60;62.10
50548;DHT22;38013;48.810;8.818;2022-07-30T05:01:21;18.70;62.10
50548;DHT22;38013;48.810;8.818;2022-07-30T05:03:52;18.70;62.20
50548;DHT22;38013;48.810;8.818;2022-07-30T05:06:19;18.80;62.10
50548;DHT22;38013;48.810;8.818;2022-07-30T05:08:47;18.90;62.00
50548;DHT22;38013;48.810;8.818;2022-07-30T05:11:14;18.90;62.00
50548;DHT22;38013;48.810;8.818;2022-07-30T05:13:41;18.90;61.90
50548;DHT22;38013;48.810;8.818;2022-07-30T05:16:11;19.00;61.90
50548;DHT22;38013;48.810;8.818;2022-07-30T05:18:37;19.10;61.90
50548;DHT22;38013;48.810;8.818;2022-07-30T05:21:03;19.10;61.80
50548;DHT22;38013;48.810;8.818;2022-07-30T05:23:42;19.10;61.90
50548;DHT22;38013;48.810;8.818;2022-07-30T05:26:18;19.20;61.80
50548;DHT22;38013;48.810;8.818;2022-07-30T05:28:46;19.30;61.80
50548;DHT22;38013;48.810;8.818;2022-07-30T05:31:13;19.30;61.80
50548;DHT22;38013;48.810;8.818;2022-07-30T05:33:44;19.40;61.60
50548;DHT22;38013;48.810;8.818;2022-07-30T05:36:14;19.50;61.50
50548;DHT22;38013;48.810;8.818;2022-07-30T05:38:40;19.60;61.20
50548;DHT22;38013;48.810;8.818;2022-07-30T05:41:30;19.70;61.20
50548;DHT22;38013;48.810;8.818;2022-07-30T05:44:06;19.70;61.10
50548;DHT22;38013;48.810;8.818;2022-07-30T05:46:32;19.80;61.00
50548;DHT22;38013;48.810;8.818;2022-07-30T05:48:58;19.90;61.70
50548;DHT22;38013;48.810;8.818;2022-07-30T05:51:24;20.00;61.90
50548;DHT22;38013;48.810;8.818;2022-07-30T05:53:50;20.00;61.80
50548;DHT22;38013;48.810;8.818;2022-07-30T05:56:37;20.10;61.90
50548;DHT22;38013;48.810;8.818;2022-07-30T05:59:21;20.20;61.70
50548;DHT22;38013;48.810;8.818;2022-07-30T06:02:04;20.30;61.40
50548;DHT22;38013;48.810;8.818;2022-07-30T06:04:49;20.40;61.30
50548;DHT22;38013;48.810;8.818;2022-07-30T06:07:16;20.50;61.00
50548;DHT22;38013;48.810;8.818;2022-07-30T06:09:42;20.60;60.80
50548;DHT22;38013;48.810;8.818;2022-07-30T06:12:09;20.70;60.70
50548;DHT22;38013;48.810;8.818;2022-07-30T06:14:35;20.80;60.60
50548;DHT22;38013;48.810;8.818;2022-07-30T06:17:01;21.00;60.70
50548;DHT22;38013;48.810;8.818;2022-07-30T06:19:38;21.10;60.20
50548;DHT22;38013;48.810;8.818;2022-07-30T06:22:04;21.20;60.20
50548;DHT22;38013;48.810;8.818;2022-07-30T06:24:29;21.40;59.80
50548;DHT22;38013;48.810;8.818;2022-07-30T06:27:07;21.50;59.40
50548;DHT22;38013;48.810;8.818;2022-07-30T06:29:33;21.70;58.80
50548;DHT22;38013;48.810;8.818;2022-07-30T06:31:59;21.80;58.40
50548;DHT22;38013;48.810;8.818;2022-07-30T06:34:25;21.90;58.00
50548;DHT22;38013;48.810;8.818;2022-07-30T06:36:51;22.00;57.80
50548;DHT22;38013;48.810;8.818;2022-07-30T06:39:19;22.10;57.40
50548;DHT22;38013;48.810;8.818;2022-07-30T06:41:50;22.20;57.00
50548;DHT22;38013;48.810;8.818;2022-07-30T06:44:16;22.30;56.50
50548;DHT22;38013;48.810;8.818;2022-07-30T06:47:01;22.40;56.30
50548;DHT22;38013;48.810;8.818;2022-07-30T06:49:26;22.50;56.10
50548;DHT22;38013;48.810;8.818;2022-07-30T06:51:53;22.60;55.90
50548;DHT22;38013;48.810;8.818;2022-07-30T06:54:18;22.70;55.80
50548;DHT22;38013;48.810;8.818;2022-07-30T06:56:53;22.70;55.40
50548;DHT22;38013;48.810;8.818;2022-07-30T06:59:20;22.90;55.40
50548;DHT22;38013;48.810;8.818;2022-07-30T07:01:54;22.90;54.80
50548;DHT22;38013;48.810;8.818;2022-07-30T07:04:22;23.00;54.40
50548;DHT22;38013;48.810;8.818;2022-07-30T07:06:48;23.00;54.10
50548;DHT22;38013;48.810;8.818;2022-07-30T07:09:24;23.10;53.90
50548;DHT22;38013;48.810;8.818;2022-07-30T07:12:07;23.20;53.60
50548;DHT22;38013;48.810;8.818;2022-07-30T07:14:37;23.30;53.10
50548;DHT22;38013;48.810;8.818;2022-07-30T07:17:03;23.40;52.60
50548;DHT22;38013;48.810;8.818;2022-07-30T07:19:58;23.50;51.30
50548;DHT22;38013;48.810;8.818;2022-07-30T07:22:25;23.60;51.00
50548;DHT22;38013;48.810;8.818;2022-07-30T07:24:52;23.60;50.90
50548;DHT22;38013;48.810;8.818;2022-07-30T07:27:22;23.70;50.20
50548;DHT22;38013;48.810;8.818;2022-07-30T07:29:51;23.70;50.50
50548;DHT22;38013;48.810;8.818;2022-07-30T07:32:17;23.80;50.10
50548;DHT22;38013;48.810;8.818;2022-07-30T07:34:43;23.90;49.50
50548;DHT22;38013;48.810;8.818;2022-07-30T07:37:09;23.90;49.30
50548;DHT22;38013;48.810;8.818;2022-07-30T07:39:36;24.00;49.20
50548;DHT22;38013;48.810;8.818;2022-07-30T07:42:02;24.00;48.90
50548;DHT22;38013;48.810;8.818;2022-07-30T07:44:29;24.00;49.40
50548;DHT22;38013;48.810;8.818;2022-07-30T07:46:55;24.00;48.90
50548;DHT22;38013;48.810;8.818;2022-07-30T07:49:24;24.10;49.10
50548;DHT22;38013;48.810;8.818;2022-07-30T07:51:51;24.20;49.10
50548;DHT22;38013;48.810;8.818;2022-07-30T07:54:18;24.20;48.70
50548;DHT22;38013;48.810;8.818;2022-07-30T07:56:45;24.30;48.60
50548;DHT22;38013;48.810;8.818;2022-07-30T07:59:13;24.30;48.20
50548;DHT22;38013;48.810;8.818;2022-07-30T08:01:39;24.40;48.20
50548;DHT22;38013;48.810;8.818;2022-07-30T08:04:23;24.40;47.80
50548;DHT22;38013;48.810;8.818;2022-07-30T08:07:07;24.40;46.80
50548;DHT22;38013;48.810;8.818;2022-07-30T08:09:59;24.50;46.90
50548;DHT22;38013;48.810;8.818;2022-07-30T08:12:53;24.60;46.70
50548;DHT22;38013;48.810;8.818;2022-07-30T08:15:34;24.60;46.60
50548;DHT22;38013;48.810;8.818;2022-07-30T08:18:28;24.60;46.80
50548;DHT22;38013;48.810;8.818;2022-07-30T08:21:11;24.70;46.50
50548;DHT22;38013;48.810;8.818;2022-07-30T08:23:37;24.70;46.10
50548;DHT22;38013;48.810;8.818;2022-07-30T08:26:02;24.70;45.90
50548;DHT22;38013;48.810;8.818;2022-07-30T08:28:28;24.70;45.80
50548;DHT22;38013;48.810;8.818;2022-07-30T08:30:54;24.70;45.70
50548;DHT22;38013;48.810;8.818;2022-07-30T08:33:20;24.80;45.20
50548;DHT22;38013;48.810;8.818;2022-07-30T08:35:46;24.70;45.20
50548;DHT22;38013;48.810;8.818;2022-07-30T08:38:12;24.80;45.90
50548;DHT22;38013;48.810;8.818;2022-07-30T08:40:38;24.90;45.30
50548;DHT22;38013;48.810;8.818;2022-07-30T08:43:05;24.90;45.40
50548;DHT22;38013;48.810;8.818;2022-07-30T08:45:33;24.90;45.40
50548;DHT22;38013;48.810;8.818;2022-07-30T08:48:10;25.00;45.20
50548;DHT22;38013;48.810;8.818;2022-07-30T08:50:43;25.10;44.50
50548;DHT22;38013;48.810;8.818;2022-07-30T08:53:28;25.20;44.70
50548;DHT22;38013;48.810;8.818;2022-07-30T08:55:56;25.20;44.20
50548;DHT22;38013;48.810;8.818;2022-07-30T08:58:27;25.30;44.20
50548;DHT22;38013;48.810;8.818;2022-07-30T09:00:55;25.30;43.80
50548;DHT22;38013;48.810;8.818;2022-07-30T09:03:21;25.40;44.10
50548;DHT22;38013;48.810;8.818;2022-07-30T09:05:47;25.50;43.90
50548;DHT22;38013;48.810;8.818;2022-07-30T09:08:12;25.50;43.50
50548;DHT22;38013;48.810;8.818;2022-07-30T09:10:38;25.50;43.40
50548;DHT22;38013;48.810;8.818;2022-07-30T09:13:22;25.60;43.50
50548;DHT22;38013;48.810;8.818;2022-07-30T09:15:52;25.70;42.80
50548;DHT22;38013;48.810;8.818;2022-07-30T09:18:35;25.70;43.40
50548;DHT22;38013;48.810;8.818;2022-07-30T09:21:19;25.80;42.90
50548;DHT22;38013;48.810;8.818;2022-07-30T09:27:00;25.90;43.20
50548;DHT22;38013;48.810;8.818;2022-07-30T09:29:59;26.00;43.50
50548;DHT22;38013;48.810;8.818;2022-07-30T09:32:52;26.00;43.20
50548;DHT22;38013;48.810;8.818;2022-07-30T09:35:42;26.20;42.60
50548;DHT22;38013;48.810;8.818;2022-07-30T09:38:08;26.30;42.60
50548;DHT22;38013;48.810;8.818;2022-07-30T09:40:54;26.30;42.30
50548;DHT22;38013;48.810;8.818;2022-07-30T09:43:57;26.30;41.80
50548;DHT22;38013;48.810;8.818;2022-07-30T09:46:44;26.40;41.80
50548;DHT22;38013;48.810;8.818;2022-07-30T09:49:31;26.40;41.60
50548;DHT22;38013;48.810;8.818;2022-07-30T09:51:57;26.40;41.80
50548;DHT22;38013;48.810;8.818;2022-07-30T09:54:45;26.40;41.50
50548;DHT22;38013;48.810;8.818;2022-07-30T09:57:13;26.40;41.10
50548;DHT22;38013;48.810;8.818;2022-07-30T09:59:39;26.50;41.50
50548;DHT22;38013;48.810;8.818;2022-07-30T10:02:05;26.40;41.50
50548;DHT22;38013;48.810;8.818;2022-07-30T10:05:11;26.50;41.60
50548;DHT22;38013;48.810;8.818;2022-07-30T10:07:46;26.50;41.30
50548;DHT22;38013;48.810;8.818;2022-07-30T10:10:12;26.50;40.90
50548;DHT22;38013;48.810;8.818;2022-07-30T10:12:39;26.50;41.30
50548;DHT22;38013;48.810;8.818;2022-07-30T10:15:06;26.60;41.20
50548;DHT22;38013;48.810;8.818;2022-07-30T10:17:35;26.60;40.90
50548;DHT22;38013;48.810;8.818;2022-07-30T10:20:21;26.80;41.10
50548;DHT22;38013;48.810;8.818;2022-07-30T10:23:06;26.80;41.10
50548;DHT22;38013;48.810;8.818;2022-07-30T10:25:36;26.90;40.90
50548;DHT22;38013;48.810;8.818;2022-07-30T10:28:22;27.00;40.40
50548;DHT22;38013;48.810;8.818;2022-07-30T10:30:49;27.20;40.60
50548;DHT22;38013;48.810;8.818;2022-07-30T10:33:16;27.30;40.60
50548;DHT22;38013;48.810;8.818;2022-07-30T10:35:42;27.50;40.30
50548;DHT22;38013;48.810;8.818;2022-07-30T10:38:10;27.60;39.70
50548;DHT22;38013;48.810;8.818;2022-07-30T10:41:22;27.80;39.30
50548;DHT22;38013;48.810;8.818;2022-07-30T10:44:20;27.90;38.60
50548;DHT22;38013;48.810;8.818;2022-07-30T10:47:00;28.20;38.30
50548;DHT22;38013;48.810;8.818;2022-07-30T10:49:27;28.30;37.50
50548;DHT22;38013;48.810;8.818;2022-07-30T10:51:53;28.40;38.10
50548;DHT22;38013;48.810;8.818;2022-07-30T10:57:14;28.50;37.70
50548;DHT22;38013;48.810;8.818;2022-07-30T11:02:24;28.70;37.30
50548;DHT22;38013;48.810;8.818;2022-07-30T11:07:45;28.90;36.50
50548;DHT22;38013;48.810;8.818;2022-07-30T11:10:37;28.90;37.20
50548;DHT22;38013;48.810;8.818;2022-07-30T11:13:05;29.00;36.70
50548;DHT22;38013;48.810;8.818;2022-07-30T11:15:57;29.00;37.10
50548;DHT22;38013;48.810;8.818;2022-07-30T11:18:25;29.10;36.60
50548;DHT22;38013;48.810;8.818;2022-07-30T11:21:20;29.20;36.60
50548;DHT22;38013;48.810;8.818;2022-07-30T11:23:46;29.30;36.20
50548;DHT22;38013;48.810;8.818;2022-07-30T11:29:33;29.50;35.60
50548;DHT22;38013;48.810;8.818;2022-07-30T11:32:22;29.70;36.60
50548;DHT22;38013;48.810;8.818;2022-07-30T11:35:18;29.80;36.40
50548;DHT22;38013;48.810;8.818;2022-07-30T11:38:01;30.10;34.60
50548;DHT22;38013;48.810;8.818;2022-07-30T11:43:27;30.30;34.70
50548;DHT22;38013;48.810;8.818;2022-07-30T11:46:11;30.50;33.70
50548;DHT22;38013;48.810;8.818;2022-07-30T11:48:41;30.50;34.10
50548;DHT22;38013;48.810;8.818;2022-07-30T11:51:09;30.50;34.70
50548;DHT22;38013;48.810;8.818;2022-07-30T11:53:36;30.60;34.50
50548;DHT22;38013;48.810;8.818;2022-07-30T11:56:02;30.70;34.20
50548;DHT22;38013;48.810;8.818;2022-07-30T11:58:31;30.70;34.20
50548;DHT22;38013;48.810;8.818;2022-07-30T12:01:15;30.80;34.10
50548;DHT22;38013;48.810;8.818;2022-07-30T12:03:43;30.70;33.60
50548;DHT22;38013;48.810;8.818;2022-07-30T12:06:12;30.80;34.40
50548;DHT22;38013;48.810;8.818;2022-07-30T12:08:44;30.80;34.50
50548;DHT22;38013;48.810;8.818;2022-07-30T12:11:11;30.90;34.30
50548;DHT22;38013;48.810;8.818;2022-07-30T12:13:39;31.00;34.30
50548;DHT22;38013;48.810;8.818;2022-07-30T12:16:09;31.00;33.90
50548;DHT22;38013;48.810;8.818;2022-07-30T12:18:35;31.00;33.70
50548;DHT22;38013;48.810;8.818;2022-07-30T12:21:03;31.00;34.00
50548;DHT22;38013;48.810;8.818;2022-07-30T12:23:33;31.00;34.00
50548;DHT22;38013;48.810;8.818;2022-07-30T12:26:00;31.00;33.90
50548;DHT22;38013;48.810;8.818;2022-07-30T12:28:30;31.10;33.90
50548;DHT22;38013;48.810;8.818;2022-07-30T12:31:00;31.10;33.90
50548;DHT22;38013;48.810;8.818;2022-07-30T12:33:30;31.10;33.60
50548;DHT22;38013;48.810;8.818;2022-07-30T12:35:58;31.10;33.80
50548;DHT22;38013;48.810;8.818;2022-07-30T12:38:25;31.10;33.80
50548;DHT22;38013;48.810;8.818;2022-07-30T12:41:00;31.10;33.80
50548;DHT22;38013;48.810;8.818;2022-07-30T12:46:16;31.00;33.20
50548;DHT22;38013;48.810;8.818;2022-07-30T12:49:03;31.10;33.90
50548;DHT22;38013;48.810;8.818;2022-07-30T12:51:34;31.10;34.20
50548;DHT22;38013;48.810;8.818;2022-07-30T12:54:14;31.10;34.40
50548;DHT22;38013;48.810;8.818;2022-07-30T12:57:01;31.30;34.10
50548;DHT22;38013;48.810;8.818;2022-07-30T12:59:30;31.40;33.80
50548;DHT22;38013;48.810;8.818;2022-07-30T13:01:57;31.60;34.20
50548;DHT22;38013;48.810;8.818;2022-07-30T13:04:24;31.60;34.00
50548;DHT22;38013;48.810;8.818;2022-07-30T13:07:03;31.70;34.00
50548;DHT22;38013;48.810;8.818;2022-07-30T13:09:30;31.80;33.40
50548;DHT22;38013;48.810;8.818;2022-07-30T13:11:56;31.90;33.90
50548;DHT22;38013;48.810;8.818;2022-07-30T13:14:22;32.00;33.80
50548;DHT22;38013;48.810;8.818;2022-07-30T13:16:48;32.00;33.60
50548;DHT22;38013;48.810;8.818;2022-07-30T13:19:14;32.10;33.60
50548;DHT22;38013;48.810;8.818;2022-07-30T13:21:40;32.20;33.40
50548;DHT22;38013;48.810;8.818;2022-07-30T13:24:08;32.30;33.30
50548;DHT22;38013;48.810;8.818;2022-07-30T13:26:35;32.30;32.90
50548;DHT22;38013;48.810;8.818;2022-07-30T13:29:02;32.40;32.70
50548;DHT22;38013;48.810;8.818;2022-07-30T13:31:28;32.40;32.70
50548;DHT22;38013;48.810;8.818;2022-07-30T13:33:53;32.50;32.60
50548;DHT22;38013;48.810;8.818;2022-07-30T13:36:19;32.50;32.40
50548;DHT22;38013;48.810;8.818;2022-07-30T13:38:45;32.50;32.60
50548;DHT22;38013;48.810;8.818;2022-07-30T13:41:11;32.60;32.30
50548;DHT22;38013;48.810;8.818;2022-07-30T13:43:38;32.60;32.20
50548;DHT22;38013;48.810;8.818;2022-07-30T13:46:04;32.70;32.30
50548;DHT22;38013;48.810;8.818;2022-07-30T13:48:33;32.70;31.90
50548;DHT22;38013;48.810;8.818;2022-07-30T13:51:00;32.70;31.60
50548;DHT22;38013;48.810;8.818;2022-07-30T13:53:27;32.70;31.80
50548;DHT22;38013;48.810;8.818;2022-07-30T13:55:53;32.80;31.80
50548;DHT22;38013;48.810;8.818;2022-07-30T13:58:20;32.90;31.70
50548;DHT22;38013;48.810;8.818;2022-07-30T14:00:46;32.80;31.30
50548;DHT22;38013;48.810;8.818;2022-07-30T14:03:13;32.70;31.20
50548;DHT22;38013;48.810;8.818;2022-07-30T14:05:40;32.70;31.20
50548;DHT22;38013;48.810;8.818;2022-07-30T14:08:07;32.60;31.60
50548;DHT22;38013;48.810;8.818;2022-07-30T14:10:34;32.50;30.80
50548;DHT22;38013;48.810;8.818;2022-07-30T14:13:02;32.30;30.90
50548;DHT22;38013;48.810;8.818;2022-07-30T14:15:28;32.10;30.90
50548;DHT22;38013;48.810;8.818;2022-07-30T14:17:58;32.00;31.10
50548;DHT22;38013;48.810;8.818;2022-07-30T14:20:24;31.80;31.40
50548;DHT22;38013;48.810;8.818;2022-07-30T14:22:50;31.50;31.60
50548;DHT22;38013;48.810;8.818;2022-07-30T14:25:16;31.40;31.90
50548;DHT22;38013;48.810;8.818;2022-07-30T14:27:43;31.20;32.10
50548;DHT22;38013;48.810;8.818;2022-07-30T14:30:09;31.10;32.30
50548;DHT22;38013;48.810;8.818;2022-07-30T14:32:37;31.10;32.70
50548;DHT22;38013;48.810;8.818;2022-07-30T14:35:04;31.10;32.90
50548;DHT22;38013;48.810;8.818;2022-07-30T14:37:39;31.10;33.00
50548;DHT22;38013;48.810;8.818;2022-07-30T14:40:09;31.10;32.90
50548;DHT22;38013;48.810;8.818;2022-07-30T14:42:37;31.10;32.80
50548;DHT22;38013;48.810;8.818;2022-07-30T14:45:06;31.10;32.80
50548;DHT22;38013;48.810;8.818;2022-07-30T14:47:32;31.10;32.90
50548;DHT22;38013;48.810;8.818;2022-07-30T14:49:58;31.00;33.10
50548;DHT22;38013;48.810;8.818;2022-07-30T14:52:24;30.90;33.00
50548;DHT22;38013;48.810;8.818;2022-07-30T14:54:50;30.90;33.00
50548;DHT22;38013;48.810;8.818;2022-07-30T14:57:16;30.80;33.10
50548;DHT22;38013;48.810;8.818;2022-07-30T14:59:42;30.70;33.10
50548;DHT22;38013;48.810;8.818;2022-07-30T15:02:08;30.60;33.10
50548;DHT22;38013;48.810;8.818;2022-07-30T15:04:34;30.50;33.20
50548;DHT22;38013;48.810;8.818;2022-07-30T15:07:00;30.40;33.50
50548;DHT22;38013;48.810;8.818;2022-07-30T15:09:26;30.40;33.90
50548;DHT22;38013;48.810;8.818;2022-07-30T15:11:52;30.50;34.00
50548;DHT22;38013;48.810;8.818;2022-07-30T15:14:17;30.60;33.90
50548;DHT22;38013;48.810;8.818;2022-07-30T15:16:43;30.80;34.00
50548;DHT22;38013;48.810;8.818;2022-07-30T15:19:09;31.00;33.80
50548;DHT22;38013;48.810;8.818;2022-07-30T15:21:37;31.10;33.60
50548;DHT22;38013;48.810;8.818;2022-07-30T15:24:03;31.30;33.70
50548;DHT22;38013;48.810;8.818;2022-07-30T15:26:29;31.60;33.10
50548;DHT22;38013;48.810;8.818;2022-07-30T15:28:55;31.80;32.60
50548;DHT22;38013;48.810;8.818;2022-07-30T15:31:20;31.90;32.60
50548;DHT22;38013;48.810;8.818;2022-07-30T15:33:46;32.00;32.30
50548;DHT22;38013;48.810;8.818;2022-07-30T15:36:13;32.10;32.30
50548;DHT22;38013;48.810;8.818;2022-07-30T15:38:39;32.20;32.30
50548;DHT22;38013;48.810;8.818;2022-07-30T15:41:05;32.30;31.90
50548;DHT22;38013;48.810;8.818;2022-07-30T15:43:31;32.40;31.60
50548;DHT22;38013;48.810;8.818;2022-07-30T15:45:56;32.50;31.80
50548;DHT22;38013;48.810;8.818;2022-07-30T15:48:23;32.40;31.60
50548;DHT22;38013;48.810;8.818;2022-07-30T15:50:50;32.40;31.60
50548;DHT22;38013;48.810;8.818;2022-07-30T15:53:15;32.30;31.60
50548;DHT22;38013;48.810;8.818;2022-07-30T15:55:41;32.10;31.50
50548;DHT22;38013;48.810;8.818;2022-07-30T15:58:07;32.00;31.50
50548;DHT22;38013;48.810;8.818;2022-07-30T16:00:32;31.90;31.70
50548;DHT22;38013;48.810;8.818;2022-07-30T16:02:58;31.90;32.40
50548;DHT22;38013;48.810;8.818;2022-07-30T16:05:24;32.00;32.00
50548;DHT22;38013;48.810;8.818;2022-07-30T16:07:50;32.10;32.00
50548;DHT22;38013;48.810;8.818;2022-07-30T16:10:16;32.30;31.60